Csl Tarantau — C6CL9 — position and weather

sailwx.info

Track history (hours):
 
Tides and Currents Weather Stations Pressure Air Temp Water Temp Dewpoint Dewpoint Depression Visibility Wind Speed Wind Dir Waves Ship Positions

Csl Tarantau

Last reported at 2018-Jun-16 19:20 UTC. Time now 2018-Jun-22 20:21 UTC.
Position N 29°17' W 093°41'.

Length 220 m; draft 8.2 m.

Type: Ship. MMSI: 311000508.

Date/timePositionNaut miles runAvg speedWind from/ knotsBaromVisibWave heightAir tempDewpointWater temp
2018-Jun-16 19:20N 29°17' W 093°41'412.2
2018-Jun-16 19:00N 29°21' W 093°41'1 1.0
2018-Jun-16 18:07N 29°22' W 093°41'0 0.7
2018-Jun-16 17:58N 29°22' W 093°41'1 1.7
2018-Jun-16 17:28N 29°23' W 093°41'3 6.5
2018-Jun-16 17:00N 29°26' W 093°41'4 8.8
2018-Jun-16 16:30N 29°30' W 093°41'612.9
2018-Jun-16 16:00N 29°35' W 093°47'612.5
2018-Jun-16 15:30N 29°40' W 093°50'5 9.3
2018-Jun-16 15:00N 29°44' W 093°53'4 8.6
2018-Jun-16 14:30N 29°47' W 093°57'4 7.5
2018-Jun-16 14:00N 29°50' W 093°57'3 5.4
2018-Jun-16 13:30N 29°53' W 093°55'3 6.8
2018-Jun-16 13:00N 29°55' W 093°53'3 5.9
2018-Jun-16 12:30N 29°58' W 093°51'3 6.3
2018-Jun-16 12:00N 29°59' W 093°55'3 6.1
2018-Jun-16 11:30N 30°01' W 093°58'3 5.5
2018-Jun-16 11:00N 30°01' W 094°01'2 4.8
2018-Jun-16 10:30N 30°03' W 094°02'3 5.3
2018-Jun-16 10:00N 30°05' W 094°04'1 1.1
2018-Jun-16 09:30N 30°05' W 094°05'0 0.0
2018-Jun-16 08:59N 30°05' W 094°05'0 0.0
2018-Jun-16 08:29N 30°05' W 094°05'0 0.0
2018-Jun-16 07:59N 30°05' W 094°05'0 0.0
2018-Jun-16 07:29N 30°05' W 094°05'0 0.0
2018-Jun-16 06:59N 30°05' W 094°05'0 0.0
2018-Jun-16 06:29N 30°05' W 094°05'0 0.0
2018-Jun-16 05:59N 30°05' W 094°05'0 0.0
2018-Jun-16 05:29N 30°05' W 094°05'0 0.0
2018-Jun-16 04:59N 30°05' W 094°05'0 0.0
2018-Jun-16 04:29N 30°05' W 094°05'0 0.0
2018-Jun-16 03:59N 30°05' W 094°05'0 0.0
2018-Jun-16 03:29N 30°05' W 094°05'0 0.0
2018-Jun-16 02:59N 30°05' W 094°05'0 0.0
2018-Jun-16 02:26N 30°05' W 094°05'0 0.0
2018-Jun-16 01:59N 30°05' W 094°05'0 0.0
2018-Jun-16 01:29N 30°05' W 094°05'0 0.0
2018-Jun-16 00:59N 30°05' W 094°05'0 0.0
2018-Jun-16 00:29N 30°05' W 094°05'0 0.0
2018-Jun-15 23:56N 30°05' W 094°05'0 0.0
2018-Jun-15 23:29N 30°05' W 094°05'0 0.0
2018-Jun-15 22:59N 30°05' W 094°05'0 0.0
2018-Jun-15 22:29N 30°05' W 094°05'0 0.0
2018-Jun-15 21:59N 30°05' W 094°05'0 0.0
2018-Jun-15 21:29N 30°05' W 094°05'0 0.0
2018-Jun-15 20:59N 30°05' W 094°05'0 0.0
2018-Jun-15 20:29N 30°05' W 094°05'0 0.0
2018-Jun-15 19:59N 30°05' W 094°05'0 0.0
2018-Jun-15 19:29N 30°05' W 094°05'0 0.0
2018-Jun-15 18:59N 30°05' W 094°05'0 0.0
2018-Jun-15 18:29N 30°05' W 094°05'0 0.0
2018-Jun-15 17:59N 30°05' W 094°05'0 0.0
2018-Jun-15 17:29N 30°05' W 094°05'0 0.0
2018-Jun-15 16:59N 30°05' W 094°05'0 0.0
2018-Jun-15 16:23N 30°05' W 094°05'0 0.0
2018-Jun-15 15:59N 30°05' W 094°05'0 0.0
2018-Jun-15 15:29N 30°05' W 094°05'0 0.0
2018-Jun-15 14:59N 30°05' W 094°05'0 0.0
2018-Jun-15 14:26N 30°05' W 094°05'0 0.0
2018-Jun-15 13:56N 30°05' W 094°05'0 0.0
2018-Jun-15 13:26N 30°05' W 094°05'0 0.0
2018-Jun-15 12:59N 30°05' W 094°05'0 0.0
2018-Jun-15 12:29N 30°05' W 094°05'0 0.0
2018-Jun-15 11:59N 30°05' W 094°05'0 0.0
2018-Jun-15 11:29N 30°05' W 094°05'0 0.0
2018-Jun-15 10:59N 30°05' W 094°05'0 0.0
2018-Jun-15 10:29N 30°05' W 094°05'0 0.0
2018-Jun-15 09:59N 30°05' W 094°05'0 0.0
2018-Jun-15 09:29N 30°05' W 094°05'0 0.1
2018-Jun-15 09:00N 30°05' W 094°05'2 3.1
2018-Jun-15 08:30N 30°04' W 094°03'2 4.4
2018-Jun-15 08:00N 30°02' W 094°02'2 4.2
2018-Jun-15 07:30N 30°01' W 094°00'2 3.8
2018-Jun-15 07:00N 30°01' W 093°58'3 4.8
2018-Jun-15 06:29N 29°59' W 093°56'3 6.0
2018-Jun-15 06:00N 29°59' W 093°52'3 5.2
2018-Jun-15 05:30N 29°56' W 093°52'3 5.8
2018-Jun-15 05:00N 29°54' W 093°54'3 5.7
2018-Jun-15 04:30N 29°52' W 093°56'2 4.5
2018-Jun-15 04:00N 29°50' W 093°57'3 6.7
2018-Jun-15 03:30N 29°46' W 093°56'3 6.8
2018-Jun-15 03:00N 29°45' W 093°53'4 7.1
2018-Jun-15 02:30N 29°42' W 093°51'5 9.3
2018-Jun-15 02:00N 29°37' W 093°49'612.5
2018-Jun-15 01:30N 29°33' W 093°44'611.8
2018-Jun-15 01:00N 29°28' W 093°40'4 7.7
2018-Jun-15 00:29N 29°24' W 093°39'  
2018-Jun-12 19:17N 20°39' W 086°59'414.3
2018-Jun-12 19:01N 20°37' W 087°02'6 0.7
2018-Jun-12 11:09N 20°34' W 087°08'0 0.0
2018-Jun-12 10:39N 20°34' W 087°08'0 0.0
2018-Jun-12 08:15N 20°34' W 087°08'0 0.0
2018-Jun-12 06:09N 20°34' W 087°08'0 0.0
2018-Jun-11 23:14N 20°34' W 087°08'0 1.4
2018-Jun-11 23:00N 20°34' W 087°07'2 3.1
2018-Jun-11 22:28N 20°35' W 087°06'2 5.3
2018-Jun-11 22:00N 20°36' W 087°03'1 1.2
2018-Jun-11 21:30N 20°36' W 087°03'2 4.5
2018-Jun-11 21:00N 20°34' W 087°03'1 1.8
2018-Jun-11 20:30N 20°34' W 087°04'1 1.5
2018-Jun-11 20:00N 20°34' W 087°04'1 1.7
2018-Jun-11 19:30N 20°35' W 087°05'1 1.4
2018-Jun-11 18:54N 20°35' W 087°04'2 6.1
2018-Jun-11 18:30N 20°37' W 087°02'  
2018-Jun-06 19:36N 25°33' W 079°31'111.1
2018-Jun-06 19:30N 25°34' W 079°31'  
Track history (hours):
 
Tides and Currents Weather Stations Pressure Air Temp Water Temp Dewpoint Dewpoint Depression Visibility Wind Speed Wind Dir Waves Ship Positions

Csl Tarantau

Last reported at 2018-Jun-16 19:20 UTC. Time now 2018-Jun-22 20:21 UTC.
Position N 29°17' W 093°41'.

Length 220 m; draft 8.2 m.

Type: Ship. MMSI: 311000508.

Date/timePositionNaut miles runAvg speedWind from/ knotsBaromVisibWave heightAir tempDewpointWater temp
2018-Jun-16 19:20N 29°17' W 093°41'412.2
2018-Jun-16 19:00N 29°21' W 093°41'1 1.0
2018-Jun-16 18:07N 29°22' W 093°41'0 0.7
2018-Jun-16 17:58N 29°22' W 093°41'1 1.7
2018-Jun-16 17:28N 29°23' W 093°41'3 6.5
2018-Jun-16 17:00N 29°26' W 093°41'4 8.8
2018-Jun-16 16:30N 29°30' W 093°41'612.9
2018-Jun-16 16:00N 29°35' W 093°47'612.5
2018-Jun-16 15:30N 29°40' W 093°50'5 9.3
2018-Jun-16 15:00N 29°44' W 093°53'4 8.6
2018-Jun-16 14:30N 29°47' W 093°57'4 7.5
2018-Jun-16 14:00N 29°50' W 093°57'3 5.4
2018-Jun-16 13:30N 29°53' W 093°55'3 6.8
2018-Jun-16 13:00N 29°55' W 093°53'3 5.9
2018-Jun-16 12:30N 29°58' W 093°51'3 6.3
2018-Jun-16 12:00N 29°59' W 093°55'3 6.1
2018-Jun-16 11:30N 30°01' W 093°58'3 5.5
2018-Jun-16 11:00N 30°01' W 094°01'2 4.8
2018-Jun-16 10:30N 30°03' W 094°02'3 5.3
2018-Jun-16 10:00N 30°05' W 094°04'1 1.1
2018-Jun-16 09:30N 30°05' W 094°05'0 0.0
2018-Jun-16 08:59N 30°05' W 094°05'0 0.0
2018-Jun-16 08:29N 30°05' W 094°05'0 0.0
2018-Jun-16 07:59N 30°05' W 094°05'0 0.0
2018-Jun-16 07:29N 30°05' W 094°05'0 0.0
2018-Jun-16 06:59N 30°05' W 094°05'0 0.0
2018-Jun-16 06:29N 30°05' W 094°05'0 0.0
2018-Jun-16 05:59N 30°05' W 094°05'0 0.0
2018-Jun-16 05:29N 30°05' W 094°05'0 0.0
2018-Jun-16 04:59N 30°05' W 094°05'0 0.0
2018-Jun-16 04:29N 30°05' W 094°05'0 0.0
2018-Jun-16 03:59N 30°05' W 094°05'0 0.0
2018-Jun-16 03:29N 30°05' W 094°05'0 0.0
2018-Jun-16 02:59N 30°05' W 094°05'0 0.0
2018-Jun-16 02:26N 30°05' W 094°05'0 0.0
2018-Jun-16 01:59N 30°05' W 094°05'0 0.0
2018-Jun-16 01:29N 30°05' W 094°05'0 0.0
2018-Jun-16 00:59N 30°05' W 094°05'0 0.0
2018-Jun-16 00:29N 30°05' W 094°05'0 0.0
2018-Jun-15 23:56N 30°05' W 094°05'0 0.0
2018-Jun-15 23:29N 30°05' W 094°05'0 0.0
2018-Jun-15 22:59N 30°05' W 094°05'0 0.0
2018-Jun-15 22:29N 30°05' W 094°05'0 0.0
2018-Jun-15 21:59N 30°05' W 094°05'0 0.0
2018-Jun-15 21:29N 30°05' W 094°05'0 0.0
2018-Jun-15 20:59N 30°05' W 094°05'0 0.0
2018-Jun-15 20:29N 30°05' W 094°05'0 0.0
2018-Jun-15 19:59N 30°05' W 094°05'0 0.0
2018-Jun-15 19:29N 30°05' W 094°05'0 0.0
2018-Jun-15 18:59N 30°05' W 094°05'0 0.0
2018-Jun-15 18:29N 30°05' W 094°05'0 0.0
2018-Jun-15 17:59N 30°05' W 094°05'0 0.0
2018-Jun-15 17:29N 30°05' W 094°05'0 0.0
2018-Jun-15 16:59N 30°05' W 094°05'0 0.0
2018-Jun-15 16:23N 30°05' W 094°05'0 0.0
2018-Jun-15 15:59N 30°05' W 094°05'0 0.0
2018-Jun-15 15:29N 30°05' W 094°05'0 0.0
2018-Jun-15 14:59N 30°05' W 094°05'0 0.0
2018-Jun-15 14:26N 30°05' W 094°05'0 0.0
2018-Jun-15 13:56N 30°05' W 094°05'0 0.0
2018-Jun-15 13:26N 30°05' W 094°05'0 0.0
2018-Jun-15 12:59N 30°05' W 094°05'0 0.0
2018-Jun-15 12:29N 30°05' W 094°05'0 0.0
2018-Jun-15 11:59N 30°05' W 094°05'0 0.0
2018-Jun-15 11:29N 30°05' W 094°05'0 0.0
2018-Jun-15 10:59N 30°05' W 094°05'0 0.0
2018-Jun-15 10:29N 30°05' W 094°05'0 0.0
2018-Jun-15 09:59N 30°05' W 094°05'0 0.0
2018-Jun-15 09:29N 30°05' W 094°05'0 0.1
2018-Jun-15 09:00N 30°05' W 094°05'2 3.1
2018-Jun-15 08:30N 30°04' W 094°03'2 4.4
2018-Jun-15 08:00N 30°02' W 094°02'2 4.2
2018-Jun-15 07:30N 30°01' W 094°00'2 3.8
2018-Jun-15 07:00N 30°01' W 093°58'3 4.8
2018-Jun-15 06:29N 29°59' W 093°56'3 6.0
2018-Jun-15 06:00N 29°59' W 093°52'3 5.2
2018-Jun-15 05:30N 29°56' W 093°52'3 5.8
2018-Jun-15 05:00N 29°54' W 093°54'3 5.7
2018-Jun-15 04:30N 29°52' W 093°56'2 4.5
2018-Jun-15 04:00N 29°50' W 093°57'3 6.7
2018-Jun-15 03:30N 29°46' W 093°56'3 6.8
2018-Jun-15 03:00N 29°45' W 093°53'4 7.1
2018-Jun-15 02:30N 29°42' W 093°51'5 9.3
2018-Jun-15 02:00N 29°37' W 093°49'612.5
2018-Jun-15 01:30N 29°33' W 093°44'611.8
2018-Jun-15 01:00N 29°28' W 093°40'4 7.7
2018-Jun-15 00:29N 29°24' W 093°39'  
2018-Jun-12 19:17N 20°39' W 086°59'414.3
2018-Jun-12 19:01N 20°37' W 087°02'6 0.7
2018-Jun-12 11:09N 20°34' W 087°08'0 0.0
2018-Jun-12 10:39N 20°34' W 087°08'0 0.0
2018-Jun-12 08:15N 20°34' W 087°08'0 0.0
2018-Jun-12 06:09N 20°34' W 087°08'0 0.0
2018-Jun-11 23:14N 20°34' W 087°08'0 1.4
2018-Jun-11 23:00N 20°34' W 087°07'2 3.1
2018-Jun-11 22:28N 20°35' W 087°06'2 5.3
2018-Jun-11 22:00N 20°36' W 087°03'1 1.2
2018-Jun-11 21:30N 20°36' W 087°03'2 4.5
2018-Jun-11 21:00N 20°34' W 087°03'1 1.8
2018-Jun-11 20:30N 20°34' W 087°04'1 1.5
2018-Jun-11 20:00N 20°34' W 087°04'1 1.7
2018-Jun-11 19:30N 20°35' W 087°05'1 1.4
2018-Jun-11 18:54N 20°35' W 087°04'2 6.1
2018-Jun-11 18:30N 20°37' W 087°02'  
2018-Jun-06 19:36N 25°33' W 079°31'111.1
2018-Jun-06 19:30N 25°34' W 079°31'  

Dump ship's entire track history